createdAt,value
2023-02-02T00:00:59.280Z,13.00
2023-02-02T00:03:58.772Z,13.00
2023-02-02T00:06:31.549Z,13.00
2023-02-02T00:09:04.883Z,13.00
2023-02-02T00:11:36.129Z,13.00
2023-02-02T00:14:06.957Z,13.00
2023-02-02T00:16:47.754Z,13.00
2023-02-02T00:19:51.580Z,13.00
2023-02-02T00:22:22.774Z,13.00
2023-02-02T00:24:53.903Z,13.00
2023-02-02T00:27:24.946Z,13.00
2023-02-02T00:29:55.762Z,13.00
2023-02-02T00:32:27.190Z,13.00
2023-02-02T00:34:58.281Z,13.10
2023-02-02T00:40:21.154Z,13.00
2023-02-02T00:42:51.938Z,13.00
2023-02-02T00:45:25.870Z,13.00
2023-02-02T00:48:00.317Z,13.00
2023-02-02T00:50:31.707Z,13.00
2023-02-02T00:53:02.461Z,13.00
2023-02-02T00:55:56.922Z,13.00
2023-02-02T00:58:28.476Z,13.00
2023-02-02T01:01:02.538Z,13.00
2023-02-02T01:03:33.685Z,13.00
2023-02-02T01:06:05.058Z,13.00
2023-02-02T01:08:36.317Z,13.00
2023-02-02T01:11:07.963Z,13.00
2023-02-02T01:13:58.954Z,13.00
2023-02-02T01:16:49.723Z,13.00
2023-02-02T01:19:20.842Z,13.00
2023-02-02T01:21:58.182Z,13.00
2023-02-02T01:24:31.346Z,13.00
2023-02-02T01:27:05.968Z,13.00
2023-02-02T01:29:36.917Z,13.00
2023-02-02T01:32:08.812Z,13.00
2023-02-02T01:34:43.329Z,13.00
2023-02-02T01:37:14.969Z,13.00
2023-02-02T01:39:46.093Z,13.00
2023-02-02T01:42:21.821Z,13.00
2023-02-02T01:45:16.449Z,13.00
2023-02-02T01:47:57.972Z,12.90
2023-02-02T01:51:05.908Z,13.00
2023-02-02T01:53:59.333Z,12.90
2023-02-02T01:56:37.367Z,13.00
2023-02-02T02:01:56.478Z,13.00
2023-02-02T02:04:29.112Z,12.90
2023-02-02T02:07:03.364Z,12.90
2023-02-02T02:09:35.838Z,12.90
2023-02-02T02:12:17.228Z,12.90
2023-02-02T02:15:09.920Z,12.90
2023-02-02T02:18:20.424Z,12.90
2023-02-02T02:21:19.539Z,12.90
2023-02-02T02:27:45.070Z,12.90
2023-02-02T02:30:36.283Z,12.90
2023-02-02T02:33:29.499Z,12.80
2023-02-02T02:36:13.769Z,12.80
2023-02-02T02:39:05.950Z,12.90
2023-02-02T02:41:46.812Z,12.80
2023-02-02T02:44:21.349Z,12.80
2023-02-02T02:46:53.094Z,12.80
2023-02-02T02:49:24.368Z,12.80
2023-02-02T02:51:56.908Z,12.80
2023-02-02T02:54:47.096Z,12.80
2023-02-02T02:57:32.950Z,12.80
2023-02-02T03:00:35.619Z,12.80
2023-02-02T03:03:36.632Z,12.80
2023-02-02T03:06:16.397Z,12.80
2023-02-02T03:09:02.833Z,12.80
2023-02-02T03:11:36.193Z,12.80
2023-02-02T03:14:27.983Z,12.80
2023-02-02T03:17:00.604Z,12.80
2023-02-02T03:19:31.811Z,12.80
2023-02-02T03:22:03.094Z,12.80
2023-02-02T03:24:54.243Z,12.80
2023-02-02T03:30:38.068Z,12.80
2023-02-02T03:33:50.593Z,12.90
2023-02-02T03:36:24.787Z,12.80
2023-02-02T03:38:56.720Z,12.80
2023-02-02T03:41:34.004Z,12.80
2023-02-02T03:44:05.222Z,12.80
2023-02-02T03:46:36.940Z,12.80
2023-02-02T03:49:08.199Z,12.80
2023-02-02T03:51:40.992Z,12.80
2023-02-02T03:54:11.955Z,12.80
2023-02-02T03:57:02.801Z,12.80
2023-02-02T03:59:33.893Z,12.80
2023-02-02T04:02:05.296Z,12.80
2023-02-02T04:07:21.633Z,12.70
2023-02-02T04:09:52.904Z,12.80
2023-02-02T04:12:24.262Z,12.80
2023-02-02T04:14:55.344Z,12.80
2023-02-02T04:17:29.492Z,12.70
2023-02-02T04:20:01.022Z,12.70
2023-02-02T04:22:32.071Z,12.70
2023-02-02T04:25:03.224Z,12.70
2023-02-02T04:27:35.513Z,12.70
2023-02-02T04:30:07.660Z,12.70
2023-02-02T04:32:38.680Z,12.70
2023-02-02T04:35:10.256Z,12.80
2023-02-02T04:38:06.365Z,12.70
2023-02-02T04:40:40.383Z,12.70
2023-02-02T04:46:01.715Z,12.70
2023-02-02T04:48:37.111Z,12.80
2023-02-02T04:53:56.735Z,12.80
2023-02-02T04:56:38.929Z,12.80
2023-02-02T04:59:26.871Z,12.70
2023-02-02T05:02:19.749Z,12.70
2023-02-02T05:04:50.817Z,12.70
2023-02-02T05:07:22.008Z,12.70
2023-02-02T05:09:53.097Z,12.70
2023-02-02T05:12:24.308Z,12.70
2023-02-02T05:15:10.372Z,12.80
2023-02-02T05:21:05.267Z,12.70
2023-02-02T05:23:36.617Z,12.70
2023-02-02T05:26:10.398Z,12.70
2023-02-02T05:28:41.344Z,12.70
2023-02-02T05:31:33.864Z,12.70
2023-02-02T05:34:05.268Z,12.70
2023-02-02T05:36:36.459Z,12.70
2023-02-02T05:39:29.975Z,12.70
2023-02-02T05:42:05.519Z,12.80
2023-02-02T05:44:57.439Z,12.80
2023-02-02T05:47:28.782Z,12.80
2023-02-02T05:49:59.947Z,12.70
2023-02-02T05:52:54.156Z,12.70
2023-02-02T05:55:48.816Z,12.70
2023-02-02T05:58:24.520Z,12.70
2023-02-02T06:00:57.056Z,12.70
2023-02-02T06:03:29.056Z,12.70
2023-02-02T06:06:01.571Z,12.70
2023-02-02T06:08:33.701Z,12.70
2023-02-02T06:11:15.637Z,12.70
2023-02-02T06:13:47.500Z,12.70
2023-02-02T06:16:21.285Z,12.70
2023-02-02T06:19:15.465Z,12.70
2023-02-02T06:21:50.931Z,12.70
2023-02-02T06:24:22.325Z,12.70
2023-02-02T06:26:54.906Z,12.70
2023-02-02T06:29:27.070Z,12.70
2023-02-02T06:31:58.606Z,12.70
2023-02-02T06:34:32.115Z,12.60
2023-02-02T06:37:04.078Z,12.70
2023-02-02T06:39:36.020Z,12.70
2023-02-02T06:42:20.730Z,12.70
2023-02-02T06:44:52.957Z,12.70
2023-02-02T06:50:46.847Z,12.70
2023-02-02T06:53:24.814Z,12.70
2023-02-02T06:56:03.687Z,12.60
2023-02-02T06:58:46.036Z,12.60
2023-02-02T07:01:17.584Z,12.60
2023-02-02T07:03:54.294Z,12.60
2023-02-02T07:06:30.836Z,12.70
2023-02-02T07:09:04.992Z,12.70
2023-02-02T07:11:40.662Z,12.70
2023-02-02T07:15:02.586Z,12.70
2023-02-02T07:17:35.269Z,12.70
2023-02-02T07:20:19.858Z,12.80
2023-02-02T07:23:37.890Z,12.70
2023-02-02T07:26:14.978Z,12.70
2023-02-02T07:29:21.363Z,12.70
2023-02-02T07:35:17.799Z,12.60
2023-02-02T07:37:55.347Z,12.60
2023-02-02T07:40:47.998Z,12.60
2023-02-02T07:46:29.407Z,12.60
2023-02-02T07:49:15.596Z,12.60
2023-02-02T07:52:02.751Z,12.60
2023-02-02T07:55:13.531Z,12.60
2023-02-02T07:58:00.485Z,12.60
2023-02-02T08:00:37.529Z,12.70
2023-02-02T08:03:08.926Z,12.70
2023-02-02T08:05:42.692Z,12.70
2023-02-02T08:08:29.820Z,12.70
2023-02-02T08:11:27.429Z,12.70
2023-02-02T08:14:20.310Z,12.70
2023-02-02T08:16:51.751Z,12.70
2023-02-02T08:19:48.533Z,12.70
2023-02-02T08:22:33.487Z,12.70
2023-02-02T08:25:04.447Z,12.70
2023-02-02T08:27:37.784Z,12.70
2023-02-02T08:30:58.691Z,12.60
2023-02-02T08:34:16.937Z,12.60
2023-02-02T08:36:48.038Z,12.60
2023-02-02T08:39:19.448Z,12.70
2023-02-02T08:41:58.210Z,12.60
2023-02-02T08:45:01.347Z,12.70
2023-02-02T08:48:10.871Z,12.60
2023-02-02T08:51:00.694Z,12.60
2023-02-02T08:54:10.491Z,12.70
2023-02-02T08:56:45.126Z,12.70
2023-02-02T08:59:17.873Z,12.60
2023-02-02T09:01:49.111Z,12.60
2023-02-02T09:04:39.899Z,12.60
2023-02-02T09:10:20.914Z,12.60
2023-02-02T09:12:52.895Z,12.60
2023-02-02T09:15:47.549Z,12.60
2023-02-02T09:18:18.951Z,12.60
2023-02-02T09:20:52.948Z,12.60
2023-02-02T09:23:24.085Z,12.60
2023-02-02T09:25:58.094Z,12.70
2023-02-02T09:28:28.600Z,12.70
2023-02-02T09:31:05.239Z,12.70
2023-02-02T09:34:39.539Z,12.70
2023-02-02T09:37:11.414Z,12.70
2023-02-02T09:39:42.562Z,12.70
2023-02-02T09:42:24.770Z,12.70
2023-02-02T09:45:38.024Z,12.60
2023-02-02T09:51:35.212Z,12.60
2023-02-02T09:54:10.749Z,12.60
2023-02-02T09:56:45.758Z,12.70
2023-02-02T09:59:25.695Z,12.70
2023-02-02T10:02:11.610Z,12.70
2023-02-02T10:04:51.568Z,12.70
2023-02-02T10:07:32.793Z,12.70
2023-02-02T10:10:22.211Z,12.70
2023-02-02T10:13:24.477Z,12.70
2023-02-02T10:16:21.501Z,12.70
2023-02-02T10:19:02.574Z,12.70
2023-02-02T10:22:05.976Z,12.60
2023-02-02T10:24:37.729Z,12.70
2023-02-02T10:27:16.049Z,12.70
2023-02-02T10:29:56.838Z,12.70
2023-02-02T10:32:32.580Z,12.70
2023-02-02T10:35:24.674Z,12.70
2023-02-02T10:38:04.571Z,12.70
2023-02-02T10:41:17.939Z,12.60
2023-02-02T10:44:03.136Z,12.60
2023-02-02T10:46:41.178Z,12.70
2023-02-02T10:49:23.887Z,12.60
2023-02-02T10:51:59.768Z,12.60
2023-02-02T10:55:15.983Z,12.70
2023-02-02T10:58:20.459Z,12.70
2023-02-02T11:00:55.447Z,12.70
2023-02-02T11:03:33.474Z,12.70
2023-02-02T11:06:26.233Z,12.70
2023-02-02T11:09:12.361Z,12.70
2023-02-02T11:14:48.115Z,12.70
2023-02-02T11:17:28.233Z,12.70
2023-02-02T11:20:11.584Z,12.70
2023-02-02T11:22:43.620Z,12.70
2023-02-02T11:25:34.105Z,12.70
2023-02-02T11:28:24.420Z,12.70
2023-02-02T11:30:56.832Z,12.70
2023-02-02T11:33:42.480Z,12.70
2023-02-02T11:36:40.159Z,12.70
2023-02-02T11:39:30.943Z,12.70
2023-02-02T11:42:12.157Z,12.70
2023-02-02T11:44:54.866Z,12.70
2023-02-02T11:47:57.470Z,12.70
2023-02-02T11:53:51.287Z,12.70
2023-02-02T11:56:28.940Z,12.70
2023-02-02T11:59:03.502Z,12.70
2023-02-02T12:02:22.154Z,12.70
2023-02-02T12:05:13.162Z,12.70
2023-02-02T12:11:03.561Z,12.70
2023-02-02T12:14:09.517Z,12.70
2023-02-02T12:19:56.981Z,12.70
2023-02-02T12:23:04.904Z,12.70
2023-02-02T12:26:26.869Z,12.70
2023-02-02T12:29:18.305Z,12.70
2023-02-02T12:32:11.754Z,12.70
2023-02-02T12:41:44.714Z,12.70
2023-02-02T12:44:54.179Z,12.80
2023-02-02T12:51:02.974Z,12.70
2023-02-02T12:53:43.188Z,12.70
2023-02-02T12:56:55.333Z,12.70
2023-02-02T12:59:26.727Z,12.70
2023-02-02T13:02:18.204Z,12.70
2023-02-02T13:08:57.924Z,12.70
2023-02-02T13:11:51.760Z,12.70
2023-02-02T13:14:50.123Z,12.70
2023-02-02T13:17:34.424Z,12.70
2023-02-02T13:20:13.905Z,12.70
2023-02-02T13:22:47.929Z,12.70
2023-02-02T13:25:24.096Z,12.80
2023-02-02T13:28:31.233Z,12.70
2023-02-02T13:34:19.273Z,12.80
2023-02-02T13:37:05.144Z,12.70
2023-02-02T13:39:50.113Z,12.70
2023-02-02T13:42:45.429Z,12.70
2023-02-02T13:46:06.929Z,12.70
2023-02-02T13:48:44.167Z,12.70
2023-02-02T13:51:54.585Z,12.80
2023-02-02T13:54:26.979Z,12.70
2023-02-02T13:57:01.660Z,12.70
2023-02-02T13:59:52.060Z,12.80
2023-02-02T14:02:48.209Z,12.70
2023-02-02T14:05:35.732Z,12.70
2023-02-02T14:08:29.455Z,12.70
2023-02-02T14:11:07.946Z,12.70
2023-02-02T14:14:09.521Z,12.70
2023-02-02T14:16:40.906Z,12.70
2023-02-02T14:19:44.566Z,12.70
2023-02-02T14:22:16.037Z,12.70
2023-02-02T14:25:41.560Z,12.70
2023-02-02T14:28:42.923Z,12.70
2023-02-02T14:31:55.380Z,12.70
2023-02-02T14:34:44.719Z,12.70
2023-02-02T14:37:16.236Z,12.70
2023-02-02T14:40:04.453Z,12.70
2023-02-02T14:43:21.238Z,12.70
2023-02-02T14:46:15.287Z,12.70
2023-02-02T14:49:06.118Z,12.70
2023-02-02T14:52:02.266Z,12.70
2023-02-02T14:54:53.965Z,12.70
2023-02-02T14:57:47.016Z,12.70
2023-02-02T15:00:54.122Z,12.70
2023-02-02T15:03:47.716Z,12.70
2023-02-02T15:06:46.840Z,12.70
2023-02-02T15:09:30.794Z,12.70
2023-02-02T15:12:14.603Z,12.70
2023-02-02T15:15:19.597Z,12.70
2023-02-02T15:18:15.487Z,12.70
2023-02-02T15:20:54.411Z,12.70
2023-02-02T15:23:25.742Z,12.70
2023-02-02T15:26:11.700Z,12.70
2023-02-02T15:29:03.735Z,12.70
2023-02-02T15:31:51.613Z,12.70
2023-02-02T15:35:03.474Z,12.70
2023-02-02T15:37:57.778Z,12.70
2023-02-02T15:40:31.542Z,12.70
2023-02-02T15:43:07.840Z,12.70
2023-02-02T15:45:57.971Z,12.70
2023-02-02T15:48:31.806Z,12.70
2023-02-02T15:52:18.001Z,12.70
2023-02-02T15:54:55.203Z,12.70
2023-02-02T15:57:49.572Z,12.70
2023-02-02T16:00:32.492Z,12.60
2023-02-02T16:03:24.137Z,12.70
2023-02-02T16:05:58.678Z,12.70
2023-02-02T16:08:54.709Z,12.70
2023-02-02T16:11:26.660Z,12.70
2023-02-02T16:14:20.962Z,12.70
2023-02-02T16:16:53.530Z,12.70
2023-02-02T16:19:29.275Z,12.70
2023-02-02T16:22:12.606Z,12.60
2023-02-02T16:24:57.033Z,12.70
2023-02-02T16:27:34.090Z,12.70
2023-02-02T16:30:16.150Z,12.70
2023-02-02T16:32:48.324Z,12.70
2023-02-02T16:35:38.518Z,12.60
2023-02-02T16:38:37.436Z,12.60
2023-02-02T16:41:24.322Z,12.60
2023-02-02T16:44:48.171Z,12.70
2023-02-02T16:47:37.994Z,12.70
2023-02-02T16:50:29.999Z,12.60
2023-02-02T16:53:07.491Z,12.70
2023-02-02T16:55:50.348Z,12.60
2023-02-02T16:58:25.199Z,12.60
2023-02-02T17:01:55.020Z,12.60
2023-02-02T17:04:36.778Z,12.70
2023-02-02T17:07:29.263Z,12.60
2023-02-02T17:10:26.002Z,12.60
2023-02-02T17:12:57.328Z,12.60
2023-02-02T17:15:34.364Z,12.60
2023-02-02T17:18:29.001Z,12.60
2023-02-02T17:21:24.727Z,12.60
2023-02-02T17:23:58.288Z,12.60
2023-02-02T17:26:49.737Z,12.60
2023-02-02T17:29:25.312Z,12.60
2023-02-02T17:31:56.402Z,12.60
2023-02-02T17:34:47.975Z,12.60
2023-02-02T17:37:20.222Z,12.50
2023-02-02T17:39:52.295Z,12.60
2023-02-02T17:42:33.290Z,12.50
2023-02-02T17:45:05.105Z,12.60
2023-02-02T17:47:39.030Z,12.50
2023-02-02T17:50:10.261Z,12.50
2023-02-02T17:52:41.669Z,12.50
2023-02-02T17:55:36.964Z,12.50
2023-02-02T17:58:08.393Z,12.50
2023-02-02T18:00:42.172Z,12.50
2023-02-02T18:03:35.220Z,12.50
2023-02-02T18:06:06.529Z,12.50
2023-02-02T18:08:37.692Z,12.50
2023-02-02T18:11:08.803Z,12.50
2023-02-02T18:13:39.993Z,12.60
2023-02-02T18:16:12.655Z,12.50
2023-02-02T18:18:43.642Z,12.60
2023-02-02T18:21:18.531Z,12.60
2023-02-02T18:23:54.006Z,12.60
2023-02-02T18:26:25.674Z,12.60
2023-02-02T18:28:57.015Z,12.50
2023-02-02T18:31:28.693Z,12.50
2023-02-02T18:33:59.995Z,12.50
2023-02-02T18:36:30.984Z,12.50
2023-02-02T18:39:22.002Z,12.50
2023-02-02T18:41:53.127Z,12.50
2023-02-02T18:44:25.539Z,12.50
2023-02-02T18:47:17.564Z,12.50
2023-02-02T18:49:49.211Z,12.50
2023-02-02T18:52:21.378Z,12.50
2023-02-02T18:54:52.922Z,12.50
2023-02-02T18:57:24.226Z,12.50
2023-02-02T18:59:56.407Z,12.50
2023-02-02T19:02:27.994Z,12.40
2023-02-02T19:05:16.938Z,12.40
2023-02-02T19:07:56.472Z,12.40
2023-02-02T19:10:29.664Z,12.40
2023-02-02T19:13:05.262Z,12.40
2023-02-02T19:15:39.248Z,12.50
2023-02-02T19:18:20.463Z,12.50
2023-02-02T19:20:52.691Z,12.50
2023-02-02T19:23:25.664Z,12.50
2023-02-02T19:25:58.365Z,12.60
2023-02-02T19:28:33.974Z,12.50
2023-02-02T19:31:05.293Z,12.50
2023-02-02T19:33:47.359Z,12.40
2023-02-02T19:36:24.444Z,12.40
2023-02-02T19:39:03.171Z,12.40
2023-02-02T19:41:43.657Z,12.40
2023-02-02T19:44:24.010Z,12.30
2023-02-02T19:46:58.022Z,12.30
2023-02-02T19:49:30.097Z,12.30
2023-02-02T19:52:02.378Z,12.40
2023-02-02T19:54:36.058Z,12.40
2023-02-02T19:57:22.738Z,12.30
2023-02-02T20:00:13.872Z,12.30
2023-02-02T20:02:58.737Z,12.30
2023-02-02T20:05:39.573Z,12.30
2023-02-02T20:08:26.651Z,12.30
2023-02-02T20:11:02.001Z,12.30
2023-02-02T20:13:45.650Z,12.30
2023-02-02T20:16:25.551Z,12.30
2023-02-02T20:18:58.933Z,12.30
2023-02-02T20:21:29.836Z,12.30
2023-02-02T20:24:00.786Z,12.40
2023-02-02T20:26:39.641Z,12.20
2023-02-02T20:29:42.227Z,12.30
2023-02-02T20:32:24.646Z,12.30
2023-02-02T20:35:43.010Z,12.20
2023-02-02T20:38:37.625Z,12.20
2023-02-02T20:41:09.121Z,12.30
2023-02-02T20:43:59.677Z,12.30
2023-02-02T20:46:30.411Z,12.30
2023-02-02T20:49:01.147Z,12.40
2023-02-02T20:51:31.917Z,12.40
2023-02-02T20:54:02.913Z,12.40
2023-02-02T20:56:33.855Z,12.40
2023-02-02T20:59:07.208Z,12.50
2023-02-02T21:01:38.294Z,12.40
2023-02-02T21:04:09.328Z,12.30
2023-02-02T21:06:42.110Z,12.30
2023-02-02T21:09:13.036Z,12.30
2023-02-02T21:11:44.108Z,12.40
2023-02-02T21:14:14.969Z,12.40
2023-02-02T21:17:14.441Z,12.40
2023-02-02T21:19:46.283Z,12.30
2023-02-02T21:22:17.511Z,12.40
2023-02-02T21:24:50.629Z,12.30
2023-02-02T21:27:21.335Z,12.40
2023-02-02T21:29:52.302Z,12.40
2023-02-02T21:32:23.267Z,12.40
2023-02-02T21:34:54.112Z,12.30
2023-02-02T21:37:24.760Z,12.40
2023-02-02T21:40:01.205Z,12.30
2023-02-02T21:42:37.155Z,12.20
2023-02-02T21:45:23.077Z,12.20
2023-02-02T21:48:01.749Z,12.20
2023-02-02T21:50:36.982Z,12.30
2023-02-02T21:53:21.746Z,12.40
2023-02-02T21:56:01.264Z,12.40
2023-02-02T21:58:43.590Z,12.40
2023-02-02T22:01:25.590Z,12.40
2023-02-02T22:03:56.532Z,12.40
2023-02-02T22:06:32.496Z,12.20
2023-02-02T22:09:15.482Z,12.30
2023-02-02T22:11:49.031Z,12.30
2023-02-02T22:14:22.710Z,12.30
2023-02-02T22:16:58.556Z,12.30
2023-02-02T22:19:35.407Z,12.20
2023-02-02T22:22:19.612Z,12.20
2023-02-02T22:25:04.209Z,12.20
2023-02-02T22:27:58.920Z,12.20
2023-02-02T22:30:41.889Z,12.30
2023-02-02T22:33:14.653Z,12.30
2023-02-02T22:35:47.614Z,12.30
2023-02-02T22:38:26.400Z,12.40
2023-02-02T22:40:57.349Z,12.40
2023-02-02T22:43:28.090Z,12.40
2023-02-02T22:45:58.951Z,12.40
2023-02-02T22:48:29.837Z,12.40
2023-02-02T22:51:00.511Z,12.30
2023-02-02T22:53:31.492Z,12.30
2023-02-02T22:56:02.468Z,12.30
2023-02-02T22:58:33.372Z,12.30
2023-02-02T23:01:04.021Z,12.30
2023-02-02T23:03:34.859Z,12.30
2023-02-02T23:06:05.881Z,12.30
2023-02-02T23:08:36.751Z,12.40
2023-02-02T23:11:07.705Z,12.40
2023-02-02T23:13:38.561Z,12.30
2023-02-02T23:16:09.951Z,12.30
2023-02-02T23:18:40.982Z,12.30
2023-02-02T23:21:11.654Z,12.40
2023-02-02T23:23:42.518Z,12.40
2023-02-02T23:26:13.575Z,12.40
2023-02-02T23:29:03.937Z,12.40
2023-02-02T23:31:34.742Z,12.40
2023-02-02T23:34:05.660Z,12.40
2023-02-02T23:36:36.426Z,12.30
2023-02-02T23:39:07.062Z,12.40
2023-02-02T23:41:37.725Z,12.40
2023-02-02T23:44:08.529Z,12.40
2023-02-02T23:46:40.334Z,12.40
2023-02-02T23:49:11.455Z,12.40
2023-02-02T23:51:42.732Z,12.40
2023-02-02T23:54:15.632Z,12.40
2023-02-02T23:56:46.556Z,12.40
2023-02-02T23:59:17.495Z,12.40
